Time,TemperatureF,DewpointF,PressureIn,WindDirection,WindDirectionDegrees,WindSpeedMPH,WindSpeedGustMPH,Humidity,HourlyPrecipIn,Conditions,Clouds,dailyrainin,SoftwareType,DateUTC
2013-09-23 00:01:00,73.1,69.7,29.84,West,270,1.6,1.6,89,0.00,,,0.00,WUHU216HW,2013-09-23 04:01:00,
2013-09-23 00:06:00,73.1,69.3,29.84,West,270,0.4,1.6,88,0.00,,,0.00,WUHU216HW,2013-09-23 04:06:00,
2013-09-23 00:11:00,73.1,69.3,29.84,West,270,0.4,0.4,88,0.00,,,0.00,WUHU216HW,2013-09-23 04:11:00,
2013-09-23 00:16:00,73.1,69.3,29.84,West,270,0.0,0.7,88,0.00,,,0.00,WUHU216HW,2013-09-23 04:16:00,
2013-09-23 00:21:00,73.1,69.7,29.84,West,270,0.2,1.1,89,0.00,,,0.00,WUHU216HW,2013-09-23 04:21:00,
2013-09-23 00:26:00,73.1,69.3,29.84,NW,315,0.2,1.1,88,0.00,,,0.00,WUHU216HW,2013-09-23 04:26:00,
2013-09-23 00:31:00,73.1,69.3,29.84,WNW,293,0.2,2.0,88,0.00,,,0.00,WUHU216HW,2013-09-23 04:31:00,
2013-09-23 00:36:00,73.1,69.3,29.84,WNW,293,0.0,2.0,88,0.00,,,0.00,WUHU216HW,2013-09-23 04:36:00,
2013-09-23 00:41:00,73.1,69.3,29.84,WNW,293,0.4,0.7,88,0.00,,,0.00,WUHU216HW,2013-09-23 04:41:00,
2013-09-23 00:46:00,73.1,69.3,29.84,WNW,293,0.4,0.7,88,0.00,,,0.00,WUHU216HW,2013-09-23 04:46:00,
2013-09-23 00:51:00,73.1,69.3,29.84,WNW,293,0.2,0.9,88,0.00,,,0.00,WUHU216HW,2013-09-23 04:51:00,
2013-09-23 00:56:00,72.9,69.1,29.84,WNW,293,0.0,0.9,88,0.00,,,0.00,WUHU216HW,2013-09-23 04:56:00,
2013-09-23 01:01:00,72.9,69.1,29.84,WNW,293,0.2,0.4,88,0.00,,,0.00,WUHU216HW,2013-09-23 05:01:00,
2013-09-23 01:06:00,72.9,69.1,29.84,WNW,293,0.0,0.4,88,0.00,,,0.00,WUHU216HW,2013-09-23 05:06:00,
2013-09-23 01:11:00,72.9,69.1,29.84,WNW,293,0.0,0.2,88,0.00,,,0.00,WUHU216HW,2013-09-23 05:11:00,
2013-09-23 01:16:00,72.7,68.9,29.84,WNW,293,0.0,0.0,88,0.00,,,0.00,WUHU216HW,2013-09-23 05:16:00,
2013-09-23 01:21:00,72.9,69.1,29.84,WNW,293,0.0,0.0,88,0.00,,,0.00,WUHU216HW,2013-09-23 05:21:00,
2013-09-23 01:26:00,72.9,69.1,29.83,WNW,293,0.0,0.0,88,0.00,,,0.00,WUHU216HW,2013-09-23 05:26:00,
2013-09-23 01:31:00,72.7,68.9,29.84,WNW,293,0.0,0.0,88,0.00,,,0.00,WUHU216HW,2013-09-23 05:31:00,
2013-09-23 01:36:00,72.7,68.9,29.84,WNW,293,0.0,0.9,88,0.00,,,0.00,WUHU216HW,2013-09-23 05:36:00,
2013-09-23 01:41:00,72.7,68.9,29.84,WNW,293,0.0,0.9,88,0.00,,,0.00,WUHU216HW,2013-09-23 05:41:00,
2013-09-23 01:46:00,72.5,68.8,29.84,WNW,293,0.0,0.2,88,0.00,,,0.00,WUHU216HW,2013-09-23 05:46:00,
2013-09-23 01:51:00,72.5,68.8,29.84,WNW,293,0.4,0.7,88,0.00,,,0.00,WUHU216HW,2013-09-23 05:51:00,
2013-09-23 01:56:00,72.5,68.8,29.84,WNW,293,0.0,0.7,88,0.00,,,0.00,WUHU216HW,2013-09-23 05:56:00,
2013-09-23 02:01:00,72.5,68.8,29.84,WNW,293,0.0,0.4,88,0.00,,,0.00,WUHU216HW,2013-09-23 06:01:00,
2013-09-23 02:06:00,72.5,68.8,29.84,WNW,293,0.0,0.0,88,0.00,,,0.00,WUHU216HW,2013-09-23 06:06:00,
2013-09-23 02:11:00,72.5,68.8,29.84,WNW,293,0.0,0.0,88,0.00,,,0.00,WUHU216HW,2013-09-23 06:11:00,
2013-09-23 02:16:00,72.5,68.8,29.83,WNW,293,0.0,0.0,88,0.00,,,0.00,WUHU216HW,2013-09-23 06:16:00,
2013-09-23 02:21:00,72.4,68.6,29.84,WNW,293,0.0,0.0,88,0.00,,,0.00,WUHU216HW,2013-09-23 06:21:00,
2013-09-23 02:26:00,72.4,68.6,29.84,WNW,293,0.0,0.0,88,0.00,,,0.00,WUHU216HW,2013-09-23 06:26:00,
2013-09-23 02:31:00,72.4,68.6,29.84,WNW,293,0.0,0.0,88,0.00,,,0.00,WUHU216HW,2013-09-23 06:31:00,
2013-09-23 02:36:00,72.4,68.6,29.84,WNW,293,0.0,0.0,88,0.00,,,0.00,WUHU216HW,2013-09-23 06:36:00,
2013-09-23 02:41:00,72.4,68.6,29.84,WNW,293,0.0,0.0,88,0.00,,,0.00,WUHU216HW,2013-09-23 06:41:00,
2013-09-23 02:46:00,72.4,68.6,29.83,WNW,293,0.0,0.0,88,0.00,,,0.00,WUHU216HW,2013-09-23 06:46:00,
2013-09-23 02:51:00,72.4,68.6,29.83,WNW,293,0.0,0.0,88,0.00,,,0.00,WUHU216HW,2013-09-23 06:51:00,
2013-09-23 02:56:00,72.4,68.6,29.83,WNW,293,0.0,0.0,88,0.00,,,0.00,WUHU216HW,2013-09-23 06:56:00,
2013-09-23 03:01:00,72.4,68.6,29.83,WNW,293,0.0,0.0,88,0.00,,,0.00,WUHU216HW,2013-09-23 07:01:00,
2013-09-23 03:06:00,72.4,68.6,29.83,WNW,293,0.0,0.0,88,0.00,,,0.00,WUHU216HW,2013-09-23 07:06:00,
2013-09-23 03:11:00,72.4,68.6,29.83,WNW,293,0.0,0.4,88,0.00,,,0.00,WUHU216HW,2013-09-23 07:11:00,
2013-09-23 03:16:00,72.4,68.6,29.83,WNW,293,0.0,0.4,88,0.00,,,0.00,WUHU216HW,2013-09-23 07:16:00,
2013-09-23 03:21:00,72.4,68.6,29.83,WNW,293,0.0,0.7,88,0.00,,,0.00,WUHU216HW,2013-09-23 07:21:00,
2013-09-23 03:26:00,72.4,68.6,29.83,WNW,293,0.0,1.1,88,0.00,,,0.00,WUHU216HW,2013-09-23 07:26:00,
2013-09-23 03:31:00,72.4,68.6,29.84,WNW,293,0.0,1.1,88,0.00,,,0.00,WUHU216HW,2013-09-23 07:31:00,
2013-09-23 03:36:00,72.5,68.8,29.84,West,270,0.0,0.4,88,0.00,,,0.00,WUHU216HW,2013-09-23 07:36:00,
2013-09-23 03:41:00,72.5,68.8,29.84,SSE,158,0.2,0.7,88,0.00,,,0.00,WUHU216HW,2013-09-23 07:41:00,
2013-09-23 03:46:00,72.5,68.8,29.84,SSE,158,0.0,0.7,88,0.00,,,0.00,WUHU216HW,2013-09-23 07:46:00,
2013-09-23 03:51:00,72.5,68.8,29.84,SSE,158,0.9,0.9,88,0.00,,,0.00,WUHU216HW,2013-09-23 07:51:00,
2013-09-23 03:56:00,72.5,68.8,29.84,SSE,158,0.0,0.9,88,0.00,,,0.00,WUHU216HW,2013-09-23 07:56:00,
2013-09-23 04:01:00,72.5,68.8,29.84,SSE,158,0.0,0.9,88,0.00,,,0.00,WUHU216HW,2013-09-23 08:01:00,
2013-09-23 04:06:00,72.4,68.6,29.84,SSE,158,0.0,0.0,88,0.00,,,0.00,WUHU216HW,2013-09-23 08:06:00,
2013-09-23 04:11:00,72.4,68.6,29.84,SSE,158,0.0,0.0,88,0.00,,,0.00,WUHU216HW,2013-09-23 08:11:00,
2013-09-23 04:16:00,72.4,68.6,29.84,SSE,158,0.0,0.0,88,0.00,,,0.00,WUHU216HW,2013-09-23 08:16:00,
2013-09-23 04:21:00,72.4,68.6,29.84,SSE,158,0.0,0.0,88,0.00,,,0.00,WUHU216HW,2013-09-23 08:21:00,
2013-09-23 04:26:00,72.4,68.6,29.85,SSE,158,0.0,0.0,88,0.00,,,0.00,WUHU216HW,2013-09-23 08:26:00,
2013-09-23 04:31:00,72.4,68.6,29.84,SSE,158,0.0,0.0,88,0.00,,,0.00,WUHU216HW,2013-09-23 08:31:00,
2013-09-23 04:36:00,72.4,68.6,29.85,SSE,158,0.0,0.0,88,0.00,,,0.00,WUHU216HW,2013-09-23 08:36:00,
2013-09-23 04:41:00,72.4,68.6,29.85,SSE,158,0.0,0.4,88,0.00,,,0.00,WUHU216HW,2013-09-23 08:41:00,
2013-09-23 04:46:00,72.4,68.6,29.85,SSE,158,0.2,0.4,88,0.00,,,0.00,WUHU216HW,2013-09-23 08:46:00,
2013-09-23 04:51:00,72.4,68.6,29.85,SSE,158,0.0,0.2,88,0.00,,,0.00,WUHU216HW,2013-09-23 08:51:00,
2013-09-23 04:56:00,72.4,68.6,29.85,SSE,158,0.0,0.2,88,0.00,,,0.00,WUHU216HW,2013-09-23 08:56:00,
2013-09-23 05:01:00,72.4,68.6,29.85,SSE,158,0.0,0.0,88,0.00,,,0.00,WUHU216HW,2013-09-23 09:01:00,
2013-09-23 05:06:00,72.4,68.6,29.85,SSE,158,0.0,0.0,88,0.00,,,0.00,WUHU216HW,2013-09-23 09:06:00,
2013-09-23 05:11:00,72.4,68.3,29.85,SSE,158,0.0,0.0,87,0.00,,,0.00,WUHU216HW,2013-09-23 09:11:00,
2013-09-23 05:16:00,72.4,68.3,29.86,SSE,158,0.0,0.0,87,0.00,,,0.00,WUHU216HW,2013-09-23 09:16:00,
2013-09-23 05:21:00,72.4,68.6,29.86,SSE,158,0.0,0.0,88,0.00,,,0.00,WUHU216HW,2013-09-23 09:21:00,
2013-09-23 05:26:00,72.4,68.3,29.86,SSE,158,0.0,0.0,87,0.00,,,0.00,WUHU216HW,2013-09-23 09:26:00,
2013-09-23 05:31:00,72.4,68.3,29.86,SSE,158,0.0,0.0,87,0.00,,,0.00,WUHU216HW,2013-09-23 09:31:00,
2013-09-23 05:36:00,72.4,68.3,29.86,SSE,158,0.0,0.0,87,0.00,,,0.00,WUHU216HW,2013-09-23 09:36:00,
2013-09-23 05:41:00,72.4,68.6,29.86,SSE,158,0.0,0.0,88,0.00,,,0.00,WUHU216HW,2013-09-23 09:41:00,
2013-09-23 05:46:00,72.4,68.3,29.86,SSE,158,0.0,0.0,87,0.00,,,0.00,WUHU216HW,2013-09-23 09:46:00,
2013-09-23 05:51:00,72.4,68.3,29.87,SSE,158,0.0,0.0,87,0.00,,,0.00,WUHU216HW,2013-09-23 09:51:00,
2013-09-23 05:56:00,72.4,68.6,29.87,SSE,158,0.0,0.0,88,0.00,,,0.00,WUHU216HW,2013-09-23 09:56:00,
2013-09-23 06:01:00,72.4,68.6,29.87,SSE,158,0.0,0.7,88,0.00,,,0.00,WUHU216HW,2013-09-23 10:01:00,
2013-09-23 06:06:00,72.4,68.6,29.87,SSE,158,0.0,0.7,88,0.00,,,0.00,WUHU216HW,2013-09-23 10:06:00,
2013-09-23 06:11:00,72.5,68.8,29.87,SSE,158,0.0,0.4,88,0.00,,,0.00,WUHU216HW,2013-09-23 10:11:00,
2013-09-23 06:16:00,72.5,68.8,29.87,SSE,158,0.0,0.4,88,0.00,,,0.00,WUHU216HW,2013-09-23 10:16:00,
2013-09-23 06:21:00,72.4,68.6,29.88,SSE,158,0.0,0.4,88,0.00,,,0.00,WUHU216HW,2013-09-23 10:21:00,
2013-09-23 06:26:00,72.5,68.8,29.88,SSE,158,0.0,0.2,88,0.00,,,0.00,WUHU216HW,2013-09-23 10:26:00,
2013-09-23 06:31:00,72.4,68.6,29.88,SSE,158,0.0,0.2,88,0.00,,,0.00,WUHU216HW,2013-09-23 10:31:00,
2013-09-23 06:36:00,72.4,68.6,29.88,SSE,158,0.0,0.0,88,0.00,,,0.00,WUHU216HW,2013-09-23 10:36:00,
2013-09-23 06:41:00,72.4,68.6,29.88,SSE,158,0.0,0.0,88,0.00,,,0.00,WUHU216HW,2013-09-23 10:41:00,
2013-09-23 06:46:00,72.4,68.6,29.88,SSE,158,0.0,0.0,88,0.00,,,0.00,WUHU216HW,2013-09-23 10:46:00,
2013-09-23 06:51:00,72.4,68.6,29.89,SSE,158,0.0,0.0,88,0.00,,,0.00,WUHU216HW,2013-09-23 10:51:00,
2013-09-23 06:56:00,72.4,68.6,29.89,SSE,158,0.0,0.4,88,0.00,,,0.00,WUHU216HW,2013-09-23 10:56:00,
2013-09-23 07:01:00,72.4,68.6,29.89,SSE,158,0.0,0.4,88,0.00,,,0.00,WUHU216HW,2013-09-23 11:01:00,
2013-09-23 07:06:00,72.4,68.6,29.89,SSE,158,0.0,0.0,88,0.00,,,0.00,WUHU216HW,2013-09-23 11:06:00,
2013-09-23 07:11:00,72.4,68.6,29.89,SSE,158,0.0,0.0,88,0.00,,,0.00,WUHU216HW,2013-09-23 11:11:00,
2013-09-23 07:16:00,72.4,68.6,29.90,SSE,158,0.0,0.2,88,0.00,,,0.00,WUHU216HW,2013-09-23 11:16:00,
2013-09-23 07:21:00,72.4,68.6,29.90,SSE,158,0.0,0.4,88,0.00,,,0.00,WUHU216HW,2013-09-23 11:21:00,
2013-09-23 07:26:00,72.5,68.8,29.90,SSE,158,0.0,0.4,88,0.00,,,0.00,WUHU216HW,2013-09-23 11:26:00,
2013-09-23 07:31:00,72.5,68.8,29.90,SSE,158,0.0,0.0,88,0.00,,,0.00,WUHU216HW,2013-09-23 11:31:00,
2013-09-23 07:36:00,72.5,68.8,29.90,SSE,158,0.0,0.0,88,0.00,,,0.00,WUHU216HW,2013-09-23 11:36:00,
2013-09-23 07:41:00,72.5,68.8,29.90,SSE,158,0.7,0.7,88,0.00,,,0.00,WUHU216HW,2013-09-23 11:41:00,
2013-09-23 07:46:00,72.5,68.8,29.90,SSE,158,0.0,0.7,88,0.00,,,0.00,WUHU216HW,2013-09-23 11:46:00,
2013-09-23 07:51:00,72.5,68.8,29.90,SSE,158,0.0,0.7,88,0.00,,,0.00,WUHU216HW,2013-09-23 11:51:00,
2013-09-23 07:56:00,72.7,68.9,29.90,SSE,158,0.0,0.4,88,0.00,,,0.00,WUHU216HW,2013-09-23 11:56:00,
2013-09-23 08:01:00,72.7,68.9,29.90,SSE,158,0.0,0.0,88,0.00,,,0.00,WUHU216HW,2013-09-23 12:01:00,
2013-09-23 08:06:00,72.7,68.9,29.90,SSE,158,0.0,0.0,88,0.00,,,0.00,WUHU216HW,2013-09-23 12:06:00,
2013-09-23 08:11:00,72.7,68.9,29.90,SSE,158,0.0,0.0,88,0.00,,,0.00,WUHU216HW,2013-09-23 12:11:00,
2013-09-23 08:16:00,72.7,68.9,29.91,SSE,158,0.0,0.0,88,0.00,,,0.00,WUHU216HW,2013-09-23 12:16:00,
2013-09-23 08:21:00,72.9,69.1,29.91,SSE,158,0.0,0.0,88,0.00,,,0.00,WUHU216HW,2013-09-23 12:21:00,
2013-09-23 08:26:00,73.1,69.7,29.91,SSE,158,0.0,0.0,89,0.00,,,0.00,WUHU216HW,2013-09-23 12:26:00,
2013-09-23 08:31:00,73.4,70.0,29.91,SSE,158,0.0,0.0,89,0.00,,,0.00,WUHU216HW,2013-09-23 12:31:00,
2013-09-23 08:36:00,73.6,70.2,29.91,SSE,158,0.0,0.0,89,0.00,,,0.00,WUHU216HW,2013-09-23 12:36:00,
2013-09-23 08:41:00,73.8,70.4,29.90,SSE,158,0.0,0.0,89,0.00,,,0.00,WUHU216HW,2013-09-23 12:41:00,
2013-09-23 08:46:00,74.3,70.9,29.91,SSE,158,0.0,0.4,89,0.00,,,0.00,WUHU216HW,2013-09-23 12:46:00,
2013-09-23 08:51:00,74.5,71.1,29.91,SSE,158,0.0,0.4,89,0.00,,,0.00,WUHU216HW,2013-09-23 12:51:00,
2013-09-23 08:56:00,74.9,71.5,29.90,SSE,158,0.0,0.7,89,0.00,,,0.00,WUHU216HW,2013-09-23 12:56:00,
2013-09-23 09:01:00,75.2,71.8,29.90,SSE,158,0.2,0.7,89,0.00,,,0.00,WUHU216HW,2013-09-23 13:01:00,
2013-09-23 09:06:00,75.2,71.8,29.91,West,270,1.1,1.8,89,0.00,,,0.00,WUHU216HW,2013-09-23 13:06:00,
2013-09-23 09:11:00,75.6,72.2,29.91,ESE,113,1.3,1.8,89,0.01,,,0.01,WUHU216HW,2013-09-23 13:11:00,
2013-09-23 09:16:00,75.6,72.2,29.91,SSE,158,0.2,2.5,89,0.01,,,0.01,WUHU216HW,2013-09-23 13:16:00,
2013-09-23 09:21:00,75.8,72.4,29.91,SSE,158,0.2,2.5,89,0.01,,,0.01,WUHU216HW,2013-09-23 13:21:00,
2013-09-23 09:26:00,76.0,72.5,29.92,SSE,158,0.0,0.7,89,0.01,,,0.01,WUHU216HW,2013-09-23 13:26:00,
2013-09-23 09:31:00,76.3,72.9,29.92,West,270,0.0,1.8,89,0.01,,,0.01,WUHU216HW,2013-09-23 13:31:00,
2013-09-23 09:36:00,76.7,72.9,29.92,West,270,0.0,1.8,88,0.01,,,0.01,WUHU216HW,2013-09-23 13:36:00,
2013-09-23 09:41:00,76.9,73.1,29.92,West,270,0.9,0.9,88,0.01,,,0.01,WUHU216HW,2013-09-23 13:41:00,
2013-09-23 09:46:00,76.9,72.7,29.93,West,270,0.0,0.9,87,0.01,,,0.01,WUHU216HW,2013-09-23 13:46:00,
2013-09-23 09:51:00,77.0,72.9,29.93,West,270,0.0,0.9,87,0.01,,,0.01,WUHU216HW,2013-09-23 13:51:00,
2013-09-23 09:56:00,77.4,73.3,29.93,West,270,0.0,0.4,87,0.01,,,0.01,WUHU216HW,2013-09-23 13:56:00,
2013-09-23 10:01:00,77.4,72.9,29.93,West,270,0.0,0.4,86,0.01,,,0.01,WUHU216HW,2013-09-23 14:01:00,
2013-09-23 10:06:00,77.8,73.3,29.93,WSW,248,0.0,1.3,86,0.01,,,0.01,WUHU216HW,2013-09-23 14:06:00,
2013-09-23 10:11:00,77.9,73.4,29.93,WSW,248,0.0,1.3,86,0.00,,,0.01,WUHU216HW,2013-09-23 14:11:00,
2013-09-23 10:16:00,78.1,73.6,29.94,WSW,248,0.2,1.1,86,0.00,,,0.01,WUHU216HW,2013-09-23 14:16:00,
2013-09-23 10:21:00,78.3,73.4,29.94,WSW,248,0.0,1.1,85,0.00,,,0.01,WUHU216HW,2013-09-23 14:21:00,
2013-09-23 10:26:00,78.3,73.4,29.94,WSW,248,0.0,1.1,85,0.00,,,0.01,WUHU216HW,2013-09-23 14:26:00,
2013-09-23 10:31:00,78.1,73.3,29.94,WSW,248,0.0,0.0,85,0.00,,,0.01,WUHU216HW,2013-09-23 14:31:00,
2013-09-23 10:36:00,77.9,73.1,29.94,WSW,248,0.4,0.4,85,0.00,,,0.01,WUHU216HW,2013-09-23 14:36:00,
2013-09-23 10:41:00,77.9,73.1,29.95,WSW,248,0.0,0.4,85,0.00,,,0.01,WUHU216HW,2013-09-23 14:41:00,
2013-09-23 10:46:00,78.1,73.3,29.95,WSW,248,0.4,0.9,85,0.00,,,0.01,WUHU216HW,2013-09-23 14:46:00,
2013-09-23 10:51:00,77.9,73.1,29.95,WSW,248,0.4,0.9,85,0.00,,,0.01,WUHU216HW,2013-09-23 14:51:00,
2013-09-23 10:56:00,77.8,72.9,29.95,WSW,248,0.0,0.4,85,0.00,,,0.01,WUHU216HW,2013-09-23 14:56:00,
2013-09-23 11:01:00,77.8,72.9,29.95,WSW,248,0.4,1.1,85,0.00,,,0.01,WUHU216HW,2013-09-23 15:01:00,
2013-09-23 11:06:00,77.8,72.9,29.95,WSW,248,0.0,1.1,85,0.00,,,0.01,WUHU216HW,2013-09-23 15:06:00,
2013-09-23 11:11:00,77.8,72.9,29.95,WSW,248,0.0,0.4,85,0.00,,,0.01,WUHU216HW,2013-09-23 15:11:00,
2013-09-23 11:16:00,77.8,72.9,29.95,WSW,248,0.0,0.4,85,0.00,,,0.01,WUHU216HW,2013-09-23 15:16:00,
2013-09-23 11:21:00,77.8,72.9,29.95,WSW,248,0.0,0.4,85,0.00,,,0.01,WUHU216HW,2013-09-23 15:21:00,
2013-09-23 11:26:00,77.9,73.4,29.95,WSW,248,0.0,0.4,86,0.00,,,0.01,WUHU216HW,2013-09-23 15:26:00,
2013-09-23 11:31:00,77.9,73.4,29.96,WSW,248,0.0,0.2,86,0.00,,,0.01,WUHU216HW,2013-09-23 15:31:00,
2013-09-23 11:36:00,77.8,73.3,29.96,WSW,248,0.0,0.2,86,0.00,,,0.01,WUHU216HW,2013-09-23 15:36:00,
2013-09-23 11:41:00,78.1,73.6,29.96,WSW,248,0.0,0.0,86,0.00,,,0.01,WUHU216HW,2013-09-23 15:41:00,
2013-09-23 11:46:00,78.3,73.4,29.96,WSW,248,0.0,0.0,85,0.00,,,0.01,WUHU216HW,2013-09-23 15:46:00,
2013-09-23 11:51:00,78.5,73.6,29.96,WSW,248,0.0,0.2,85,0.00,,,0.01,WUHU216HW,2013-09-23 15:51:00,
2013-09-23 11:56:00,78.5,73.6,29.96,WSW,248,0.0,0.2,85,0.00,,,0.01,WUHU216HW,2013-09-23 15:56:00,
2013-09-23 12:01:00,78.8,74.0,29.95,WSW,248,0.0,0.2,85,0.00,,,0.01,WUHU216HW,2013-09-23 16:01:00,
2013-09-23 12:06:00,78.8,74.0,29.95,WSW,248,0.7,0.9,85,0.00,,,0.01,WUHU216HW,2013-09-23 16:06:00,
2013-09-23 12:11:00,79.2,74.4,29.95,WNW,293,0.0,2.2,85,0.00,,,0.01,WUHU216HW,2013-09-23 16:11:00,
2013-09-23 12:16:00,79.6,74.4,29.95,WNW,293,0.7,2.2,84,0.00,,,0.01,WUHU216HW,2013-09-23 16:16:00,
2013-09-23 12:21:00,79.6,74.0,29.95,NW,315,0.0,1.1,83,0.00,,,0.01,WUHU216HW,2013-09-23 16:21:00,
2013-09-23 12:26:00,79.7,74.2,29.95,NW,315,0.0,1.1,83,0.00,,,0.01,WUHU216HW,2013-09-23 16:26:00,
2013-09-23 12:31:00,79.9,74.4,29.95,SW,225,0.0,2.7,83,0.00,,,0.01,WUHU216HW,2013-09-23 16:31:00,
2013-09-23 12:36:00,80.1,74.5,29.95,SW,225,0.0,2.7,83,0.00,,,0.01,WUHU216HW,2013-09-23 16:36:00,
2013-09-23 12:41:00,80.6,75.0,29.95,SW,225,0.2,0.4,83,0.00,,,0.01,WUHU216HW,2013-09-23 16:41:00,
2013-09-23 12:46:00,81.0,75.3,29.94,SSW,203,0.0,0.9,83,0.00,,,0.01,WUHU216HW,2013-09-23 16:46:00,
2013-09-23 12:51:00,81.0,75.1,29.94,SSE,158,0.0,0.9,82,0.00,,,0.01,WUHU216HW,2013-09-23 16:51:00,
2013-09-23 12:56:00,81.4,75.1,29.94,SSW,203,0.4,1.1,81,0.00,,,0.01,WUHU216HW,2013-09-23 16:56:00,
2013-09-23 13:01:00,81.7,75.8,29.93,South,180,0.2,1.1,82,0.00,,,0.01,WUHU216HW,2013-09-23 17:01:00,
2013-09-23 13:06:00,82.1,76.2,29.93,South,180,0.7,1.1,82,0.00,,,0.01,WUHU216HW,2013-09-23 17:06:00,
2013-09-23 13:11:00,82.4,75.8,29.93,WNW,293,1.1,2.9,80,0.00,,,0.01,WUHU216HW,2013-09-23 17:11:00,
2013-09-23 13:16:00,82.8,76.2,29.93,NW,315,0.0,2.9,80,0.00,,,0.01,WUHU216HW,2013-09-23 17:16:00,
2013-09-23 13:21:00,82.6,75.2,29.92,NW,315,0.0,1.1,78,0.00,,,0.01,WUHU216HW,2013-09-23 17:21:00,
2013-09-23 13:26:00,82.6,75.5,29.92,SW,225,1.1,1.3,79,0.00,,,0.01,WUHU216HW,2013-09-23 17:26:00,
2013-09-23 13:31:00,82.8,75.7,29.92,SE,135,2.2,2.2,79,0.00,,,0.01,WUHU216HW,2013-09-23 17:31:00,
2013-09-23 13:36:00,82.8,75.7,29.92,West,270,0.2,2.2,79,0.00,,,0.01,WUHU216HW,2013-09-23 17:36:00,
2013-09-23 13:41:00,82.8,75.7,29.92,SE,135,1.1,2.2,79,0.00,,,0.01,WUHU216HW,2013-09-23 17:41:00,
2013-09-23 13:46:00,83.2,76.1,29.92,SW,225,0.0,1.6,79,0.00,,,0.01,WUHU216HW,2013-09-23 17:46:00,
2013-09-23 13:51:00,83.0,75.4,29.92,SW,225,0.4,1.6,78,0.00,,,0.01,WUHU216HW,2013-09-23 17:51:00,
2013-09-23 13:56:00,82.8,75.2,29.92,SW,225,0.2,1.1,78,0.00,,,0.01,WUHU216HW,2013-09-23 17:56:00,
2013-09-23 14:01:00,83.2,76.1,29.92,WSW,248,1.1,1.3,79,0.00,,,0.01,WUHU216HW,2013-09-23 18:01:00,
2013-09-23 14:06:00,83.5,76.3,29.92,SSW,203,0.4,1.3,79,0.00,,,0.01,WUHU216HW,2013-09-23 18:06:00,
2013-09-23 14:11:00,83.3,75.8,29.92,SSE,158,0.0,1.1,78,0.00,,,0.01,WUHU216HW,2013-09-23 18:11:00,
2013-09-23 14:16:00,82.8,74.4,29.91,SSE,158,0.0,0.4,76,0.00,,,0.01,WUHU216HW,2013-09-23 18:16:00,
2013-09-23 14:21:00,82.3,74.3,29.91,SSE,158,0.0,0.4,77,0.00,,,0.01,WUHU216HW,2013-09-23 18:21:00,
2013-09-23 14:26:00,82.4,75.0,29.91,SSE,158,0.0,1.1,78,0.00,,,0.01,WUHU216HW,2013-09-23 18:26:00,
2013-09-23 14:31:00,82.4,75.0,29.91,SSE,158,0.0,1.1,78,0.00,,,0.01,WUHU216HW,2013-09-23 18:31:00,
2013-09-23 14:36:00,82.3,74.8,29.91,SSE,158,0.0,0.2,78,0.00,,,0.01,WUHU216HW,2013-09-23 18:36:00,
2013-09-23 14:41:00,82.1,74.6,29.91,SSE,158,0.0,0.4,78,0.00,,,0.01,WUHU216HW,2013-09-23 18:41:00,
2013-09-23 14:46:00,81.9,74.4,29.91,SSE,158,0.0,0.4,78,0.00,,,0.01,WUHU216HW,2013-09-23 18:46:00,
2013-09-23 14:51:00,81.5,73.7,29.91,NE,45,0.4,0.7,77,0.00,,,0.01,WUHU216HW,2013-09-23 18:51:00,
2013-09-23 14:56:00,81.2,73.7,29.91,NE,45,0.4,3.1,78,0.00,,,0.01,WUHU216HW,2013-09-23 18:56:00,
2013-09-23 15:01:00,81.0,74.0,29.91,ENE,68,0.7,3.1,79,0.00,,,0.01,WUHU216HW,2013-09-23 19:01:00,
2013-09-23 15:06:00,81.0,74.3,29.91,ENE,68,0.4,2.0,80,0.00,,,0.01,WUHU216HW,2013-09-23 19:06:00,
2013-09-23 15:11:00,81.0,74.3,29.91,NE,45,0.2,2.0,80,0.00,,,0.01,WUHU216HW,2013-09-23 19:11:00,
2013-09-23 15:16:00,81.0,74.3,29.91,East,90,1.1,2.2,80,0.00,,,0.01,WUHU216HW,2013-09-23 19:16:00,
2013-09-23 15:21:00,81.0,74.3,29.91,East,90,0.0,2.2,80,0.00,,,0.01,WUHU216HW,2013-09-23 19:21:00,
2013-09-23 15:26:00,80.8,74.2,29.91,ENE,68,1.6,2.5,80,0.00,,,0.01,WUHU216HW,2013-09-23 19:26:00,
2013-09-23 15:31:00,80.8,74.5,29.91,ENE,68,0.4,2.5,81,0.00,,,0.01,WUHU216HW,2013-09-23 19:31:00,
2013-09-23 15:36:00,80.8,74.5,29.91,ENE,68,0.2,2.5,81,0.00,,,0.01,WUHU216HW,2013-09-23 19:36:00,
2013-09-23 15:41:00,80.6,74.4,29.91,ESE,113,0.7,1.8,81,0.00,,,0.01,WUHU216HW,2013-09-23 19:41:00,
2013-09-23 15:46:00,80.6,74.4,29.91,ENE,68,0.4,2.0,81,0.00,,,0.01,WUHU216HW,2013-09-23 19:46:00,
2013-09-23 15:51:00,80.5,74.2,29.91,East,90,1.8,2.7,81,0.00,,,0.01,WUHU216HW,2013-09-23 19:51:00,
2013-09-23 15:56:00,80.3,74.0,29.91,ENE,68,0.4,2.7,81,0.01,,,0.02,WUHU216HW,2013-09-23 19:56:00,
2013-09-23 16:01:00,80.3,74.4,29.91,ESE,113,0.2,1.6,82,0.02,,,0.02,WUHU216HW,2013-09-23 20:01:00,
2013-09-23 16:06:00,80.3,74.4,29.91,ESE,113,0.4,1.6,82,0.03,,,0.04,WUHU216HW,2013-09-23 20:06:00,
2013-09-23 16:11:00,80.3,74.4,29.91,ESE,113,0.4,0.7,82,0.05,,,0.06,WUHU216HW,2013-09-23 20:11:00,
2013-09-23 16:16:00,80.3,74.7,29.91,ESE,113,0.0,0.7,83,0.05,,,0.06,WUHU216HW,2013-09-23 20:16:00,
2013-09-23 16:21:00,80.5,74.8,29.91,ESE,113,0.2,0.9,83,0.05,,,0.06,WUHU216HW,2013-09-23 20:21:00,
2013-09-23 16:26:00,80.6,75.0,29.91,ESE,113,0.9,1.1,83,0.05,,,0.06,WUHU216HW,2013-09-23 20:26:00,
2013-09-23 16:31:00,80.5,75.2,29.91,ESE,113,1.1,1.8,84,0.05,,,0.06,WUHU216HW,2013-09-23 20:31:00,
2013-09-23 16:36:00,80.3,75.0,29.91,ESE,113,1.6,1.8,84,0.05,,,0.06,WUHU216HW,2013-09-23 20:36:00,
2013-09-23 16:41:00,80.8,75.5,29.91,ESE,113,1.3,1.6,84,0.05,,,0.06,WUHU216HW,2013-09-23 20:41:00,
2013-09-23 16:46:00,81.0,76.4,29.91,ESE,113,0.2,1.6,86,0.05,,,0.06,WUHU216HW,2013-09-23 20:46:00,
2013-09-23 16:51:00,81.0,75.3,29.91,SE,135,1.3,1.8,83,0.05,,,0.06,WUHU216HW,2013-09-23 20:51:00,
2013-09-23 16:56:00,80.6,75.0,29.91,East,90,0.4,1.8,83,0.03,,,0.06,WUHU216HW,2013-09-23 20:56:00,
2013-09-23 17:01:00,80.8,75.2,29.91,NNE,23,0.2,2.5,83,0.03,,,0.06,WUHU216HW,2013-09-23 21:01:00,
2013-09-23 17:06:00,81.0,75.1,29.91,ESE,113,0.4,2.5,82,0.02,,,0.06,WUHU216HW,2013-09-23 21:06:00,
2013-09-23 17:11:00,80.8,74.9,29.91,ENE,68,0.4,1.1,82,0.00,,,0.06,WUHU216HW,2013-09-23 21:11:00,
2013-09-23 17:16:00,80.6,74.7,29.91,ENE,68,0.0,1.1,82,0.00,,,0.06,WUHU216HW,2013-09-23 21:16:00,
2013-09-23 17:21:00,80.6,74.4,29.91,ESE,113,1.8,2.0,81,0.00,,,0.06,WUHU216HW,2013-09-23 21:21:00,
2013-09-23 17:26:00,80.6,74.7,29.92,SE,135,1.1,2.5,82,0.00,,,0.06,WUHU216HW,2013-09-23 21:26:00,
2013-09-23 17:31:00,80.8,74.9,29.92,SE,135,1.3,2.5,82,0.00,,,0.06,WUHU216HW,2013-09-23 21:31:00,
2013-09-23 17:36:00,80.8,74.9,29.92,SE,135,1.1,1.6,82,0.00,,,0.06,WUHU216HW,2013-09-23 21:36:00,
2013-09-23 17:41:00,81.0,75.1,29.92,SE,135,1.1,1.3,82,0.00,,,0.06,WUHU216HW,2013-09-23 21:41:00,
2013-09-23 17:46:00,80.8,75.2,29.92,SE,135,0.0,1.1,83,0.00,,,0.06,WUHU216HW,2013-09-23 21:46:00,
2013-09-23 17:51:00,80.8,75.2,29.91,SE,135,0.4,1.1,83,0.00,,,0.06,WUHU216HW,2013-09-23 21:51:00,
2013-09-23 17:56:00,80.6,75.0,29.91,SE,135,0.0,1.1,83,0.00,,,0.06,WUHU216HW,2013-09-23 21:56:00,
2013-09-23 18:01:00,80.6,75.0,29.91,SE,135,0.9,1.1,83,0.00,,,0.06,WUHU216HW,2013-09-23 22:01:00,
2013-09-23 18:06:00,80.6,75.0,29.91,SE,135,1.1,2.5,83,0.00,,,0.06,WUHU216HW,2013-09-23 22:06:00,
2013-09-23 18:11:00,80.5,74.8,29.91,SE,135,0.7,2.5,83,0.00,,,0.06,WUHU216HW,2013-09-23 22:11:00,
2013-09-23 18:16:00,80.6,75.0,29.91,SE,135,1.3,1.8,83,0.00,,,0.06,WUHU216HW,2013-09-23 22:16:00,
2013-09-23 18:21:00,80.5,74.8,29.92,ESE,113,1.1,2.0,83,0.00,,,0.06,WUHU216HW,2013-09-23 22:21:00,
2013-09-23 18:26:00,80.3,74.7,29.92,ESE,113,0.0,2.0,83,0.00,,,0.06,WUHU216HW,2013-09-23 22:26:00,
2013-09-23 18:31:00,80.3,74.7,29.92,ESE,113,0.0,0.7,83,0.00,,,0.06,WUHU216HW,2013-09-23 22:31:00,
2013-09-23 18:36:00,80.5,74.8,29.92,ESE,113,0.2,0.7,83,0.00,,,0.06,WUHU216HW,2013-09-23 22:36:00,
2013-09-23 18:41:00,80.3,74.7,29.92,ESE,113,0.0,0.7,83,0.00,,,0.06,WUHU216HW,2013-09-23 22:41:00,
2013-09-23 18:46:00,80.1,74.5,29.93,ESE,113,0.0,0.7,83,0.00,,,0.06,WUHU216HW,2013-09-23 22:46:00,
2013-09-23 18:51:00,80.1,74.5,29.93,ESE,113,0.4,0.7,83,0.00,,,0.06,WUHU216HW,2013-09-23 22:51:00,
2013-09-23 18:56:00,79.9,74.4,29.92,ESE,113,0.4,0.7,83,0.00,,,0.06,WUHU216HW,2013-09-23 22:56:00,
2013-09-23 19:01:00,79.7,74.2,29.93,ESE,113,0.0,0.7,83,0.00,,,0.06,WUHU216HW,2013-09-23 23:01:00,
2013-09-23 19:06:00,79.6,74.0,29.93,ESE,113,0.0,0.7,83,0.00,,,0.06,WUHU216HW,2013-09-23 23:06:00,
2013-09-23 19:11:00,79.2,73.6,29.92,ESE,113,0.0,0.4,83,0.00,,,0.06,WUHU216HW,2013-09-23 23:11:00,
2013-09-23 19:16:00,79.0,73.5,29.93,ESE,113,0.2,0.4,83,0.00,,,0.06,WUHU216HW,2013-09-23 23:16:00,
2013-09-23 19:21:00,78.8,73.6,29.93,ESE,113,0.4,0.7,84,0.00,,,0.06,WUHU216HW,2013-09-23 23:21:00,
2013-09-23 19:26:00,78.7,73.4,29.93,ESE,113,0.0,0.7,84,0.00,,,0.06,WUHU216HW,2013-09-23 23:26:00,
2013-09-23 19:31:00,78.3,73.1,29.93,ESE,113,0.0,0.4,84,0.00,,,0.06,WUHU216HW,2013-09-23 23:31:00,
2013-09-23 19:36:00,77.9,73.1,29.93,ESE,113,0.0,0.2,85,0.00,,,0.06,WUHU216HW,2013-09-23 23:36:00,
2013-09-23 19:41:00,77.8,72.9,29.93,ESE,113,0.2,0.2,85,0.00,,,0.06,WUHU216HW,2013-09-23 23:41:00,
2013-09-23 19:46:00,77.8,72.9,29.93,ESE,113,0.4,0.4,85,0.00,,,0.06,WUHU216HW,2013-09-23 23:46:00,
2013-09-23 19:51:00,77.6,72.7,29.93,ESE,113,0.7,0.7,85,0.00,,,0.06,WUHU216HW,2013-09-23 23:51:00,
2013-09-23 19:56:00,77.4,72.5,29.93,ESE,113,0.7,0.9,85,0.00,,,0.06,WUHU216HW,2013-09-23 23:56:00,
2013-09-23 20:01:00,77.4,72.5,29.93,ESE,113,0.0,0.9,85,0.00,,,0.06,WUHU216HW,2013-09-24 00:01:00,
2013-09-23 20:06:00,77.0,72.2,29.93,ESE,113,0.0,0.7,85,0.00,,,0.06,WUHU216HW,2013-09-24 00:06:00,
2013-09-23 20:11:00,76.9,72.4,29.93,ESE,113,0.0,0.0,86,0.00,,,0.06,WUHU216HW,2013-09-24 00:11:00,
2013-09-23 20:16:00,76.9,72.4,29.93,ESE,113,0.0,0.0,86,0.00,,,0.06,WUHU216HW,2013-09-24 00:16:00,
2013-09-23 20:21:00,76.7,72.2,29.93,ESE,113,0.0,0.0,86,0.00,,,0.06,WUHU216HW,2013-09-24 00:21:00,
2013-09-23 20:26:00,76.5,72.0,29.93,ESE,113,0.0,0.0,86,0.00,,,0.06,WUHU216HW,2013-09-24 00:26:00,
2013-09-23 20:31:00,76.7,72.5,29.93,ESE,113,0.0,0.0,87,0.00,,,0.06,WUHU216HW,2013-09-24 00:31:00,
2013-09-23 20:36:00,76.5,72.4,29.93,ESE,113,0.0,0.0,87,0.00,,,0.06,WUHU216HW,2013-09-24 00:36:00,
2013-09-23 20:41:00,76.3,72.2,29.93,ESE,113,0.0,0.0,87,0.00,,,0.06,WUHU216HW,2013-09-24 00:41:00,
2013-09-23 20:46:00,76.3,72.2,29.93,ESE,113,0.0,0.0,87,0.00,,,0.06,WUHU216HW,2013-09-24 00:46:00,
2013-09-23 20:51:00,76.3,72.2,29.93,ESE,113,0.0,0.0,87,0.00,,,0.06,WUHU216HW,2013-09-24 00:51:00,
2013-09-23 20:56:00,76.1,72.0,29.93,ESE,113,0.0,0.0,87,0.00,,,0.06,WUHU216HW,2013-09-24 00:56:00,
2013-09-23 21:01:00,76.1,72.0,29.94,ESE,113,0.0,0.0,87,0.00,,,0.06,WUHU216HW,2013-09-24 01:01:00,
2013-09-23 21:06:00,76.1,72.0,29.94,ESE,113,0.0,0.0,87,0.00,,,0.06,WUHU216HW,2013-09-24 01:06:00,
2013-09-23 21:11:00,76.1,72.0,29.94,ESE,113,0.0,0.0,87,0.00,,,0.06,WUHU216HW,2013-09-24 01:11:00,
2013-09-23 21:16:00,76.0,71.8,29.94,ESE,113,0.0,0.0,87,0.00,,,0.06,WUHU216HW,2013-09-24 01:16:00,
2013-09-23 21:21:00,76.0,71.8,29.94,ESE,113,0.0,0.0,87,0.00,,,0.06,WUHU216HW,2013-09-24 01:21:00,
2013-09-23 21:26:00,75.8,71.6,29.95,ESE,113,0.0,0.0,87,0.00,,,0.06,WUHU216HW,2013-09-24 01:26:00,
2013-09-23 21:31:00,75.6,71.5,29.95,ESE,113,0.0,0.0,87,0.00,,,0.06,WUHU216HW,2013-09-24 01:31:00,
2013-09-23 21:36:00,75.6,71.8,29.95,ESE,113,0.0,0.0,88,0.00,,,0.06,WUHU216HW,2013-09-24 01:36:00,
2013-09-23 21:41:00,75.6,71.8,29.95,ESE,113,0.0,0.0,88,0.00,,,0.06,WUHU216HW,2013-09-24 01:41:00,
2013-09-23 21:46:00,75.6,71.8,29.95,ESE,113,0.0,0.0,88,0.00,,,0.06,WUHU216HW,2013-09-24 01:46:00,
2013-09-23 21:51:00,75.6,71.8,29.95,ESE,113,1.6,1.6,88,0.00,,,0.06,WUHU216HW,2013-09-24 01:51:00,
2013-09-23 21:56:00,75.6,71.8,29.96,SE,135,1.8,3.1,88,0.01,,,0.07,WUHU216HW,2013-09-24 01:56:00,
2013-09-23 22:01:00,75.6,72.2,29.96,ESE,113,0.7,3.1,89,0.02,,,0.08,WUHU216HW,2013-09-24 02:01:00,
2013-09-23 22:06:00,75.6,72.2,29.96,SSW,203,0.4,2.5,89,0.02,,,0.08,WUHU216HW,2013-09-24 02:06:00,
2013-09-23 22:11:00,75.6,72.2,29.95,SE,135,0.4,2.5,89,0.02,,,0.08,WUHU216HW,2013-09-24 02:11:00,
2013-09-23 22:16:00,75.4,72.0,29.95,SE,135,0.4,1.6,89,0.02,,,0.08,WUHU216HW,2013-09-24 02:16:00,
2013-09-23 22:21:00,75.4,72.0,29.96,SE,135,0.2,1.3,89,0.02,,,0.08,WUHU216HW,2013-09-24 02:21:00,
2013-09-23 22:26:00,75.4,72.0,29.95,SE,135,0.4,0.9,89,0.02,,,0.08,WUHU216HW,2013-09-24 02:26:00,
2013-09-23 22:31:00,75.2,71.8,29.96,SE,135,0.4,1.1,89,0.02,,,0.08,WUHU216HW,2013-09-24 02:31:00,
2013-09-23 22:36:00,75.2,71.8,29.96,SE,135,0.9,1.1,89,0.02,,,0.08,WUHU216HW,2013-09-24 02:36:00,
2013-09-23 22:41:00,75.1,71.6,29.96,SE,135,0.2,0.9,89,0.02,,,0.08,WUHU216HW,2013-09-24 02:41:00,
2013-09-23 22:46:00,74.9,71.5,29.95,SE,135,0.0,1.1,89,0.02,,,0.08,WUHU216HW,2013-09-24 02:46:00,
2013-09-23 22:51:00,74.9,71.5,29.95,SE,135,0.4,1.1,89,0.02,,,0.08,WUHU216HW,2013-09-24 02:51:00,
2013-09-23 22:56:00,74.7,71.3,29.95,ESE,113,0.4,2.0,89,0.02,,,0.08,WUHU216HW,2013-09-24 02:56:00,
2013-09-23 23:01:00,74.7,71.3,29.95,ESE,113,0.0,2.0,89,0.00,,,0.08,WUHU216HW,2013-09-24 03:01:00,
2013-09-23 23:06:00,74.7,71.3,29.95,ESE,113,0.2,1.6,89,0.00,,,0.08,WUHU216HW,2013-09-24 03:06:00,
2013-09-23 23:11:00,74.5,71.1,29.95,ESE,113,0.0,1.6,89,0.00,,,0.08,WUHU216HW,2013-09-24 03:11:00,
2013-09-23 23:16:00,74.5,71.1,29.95,ESE,113,0.0,1.1,89,0.00,,,0.08,WUHU216HW,2013-09-24 03:16:00,
2013-09-23 23:21:00,74.3,70.9,29.95,ESE,113,0.0,0.7,89,0.00,,,0.08,WUHU216HW,2013-09-24 03:21:00,
2013-09-23 23:26:00,74.2,70.7,29.95,ESE,113,0.0,0.4,89,0.00,,,0.08,WUHU216HW,2013-09-24 03:26:00,
2013-09-23 23:31:00,74.2,70.7,29.95,ESE,113,0.0,0.4,89,0.00,,,0.08,WUHU216HW,2013-09-24 03:31:00,
2013-09-23 23:36:00,74.0,70.6,29.95,ESE,113,0.0,0.0,89,0.00,,,0.08,WUHU216HW,2013-09-24 03:36:00,
2013-09-23 23:41:00,73.8,70.4,29.95,ESE,113,0.0,0.0,89,0.00,,,0.08,WUHU216HW,2013-09-24 03:41:00,
2013-09-23 23:46:00,73.8,70.4,29.95,ESE,113,0.0,0.0,89,0.00,,,0.08,WUHU216HW,2013-09-24 03:46:00,
2013-09-23 23:51:00,73.6,70.2,29.95,ESE,113,0.0,0.0,89,0.00,,,0.08,WUHU216HW,2013-09-24 03:51:00,
2013-09-23 23:56:00,73.4,70.0,29.95,ESE,113,0.0,0.0,89,0.00,,,0.08,WUHU216HW,2013-09-24 03:56:00,